createdAt,value
2024-01-15T00:01:02.225Z,-0.12
2024-01-15T00:03:28.823Z,-0.11
2024-01-15T00:05:55.528Z,-0.14
2024-01-15T00:08:22.016Z,-0.31
2024-01-15T00:10:48.665Z,-0.18
2024-01-15T00:13:15.261Z,-0.33
2024-01-15T00:15:41.906Z,-0.28
2024-01-15T00:18:08.663Z,-0.27
2024-01-15T00:20:35.806Z,-0.42
2024-01-15T00:23:02.426Z,-0.40
2024-01-15T00:25:29.031Z,-0.48
2024-01-15T00:27:55.707Z,-0.34
2024-01-15T00:30:22.239Z,-0.30
2024-01-15T00:32:48.789Z,-0.38
2024-01-15T00:35:15.429Z,-0.36
2024-01-15T00:37:42.023Z,-0.24
2024-01-15T00:40:08.996Z,-0.26
2024-01-15T00:42:35.527Z,-0.40
2024-01-15T00:45:02.027Z,-0.24
2024-01-15T00:47:28.569Z,-0.20
2024-01-15T00:49:55.050Z,-0.24
2024-01-15T00:52:21.567Z,-0.14
2024-01-15T00:54:48.084Z,-0.19
2024-01-15T00:57:14.667Z,-0.06
2024-01-15T00:59:41.151Z,-0.04
2024-01-15T01:02:07.699Z,0.09
2024-01-15T01:04:34.259Z,0.08
2024-01-15T01:07:00.849Z,0.10
2024-01-15T01:09:27.332Z,0.11
2024-01-15T01:11:56.658Z,0.24
2024-01-15T01:14:23.491Z,0.18
2024-01-15T01:16:49.928Z,0.31
2024-01-15T01:19:16.746Z,0.17
2024-01-15T01:21:43.424Z,0.32
2024-01-15T01:24:10.125Z,0.20
2024-01-15T01:26:36.631Z,0.23
2024-01-15T01:29:05.873Z,0.29
2024-01-15T01:31:35.615Z,0.36
2024-01-15T01:34:02.180Z,0.36
2024-01-15T01:36:32.897Z,0.40
2024-01-15T01:38:59.559Z,0.26
2024-01-15T01:41:26.177Z,0.25
2024-01-15T01:43:52.758Z,0.33
2024-01-15T01:46:19.498Z,0.12
2024-01-15T01:48:48.735Z,0.37
2024-01-15T01:51:16.267Z,0.30
2024-01-15T01:53:42.962Z,0.28
2024-01-15T01:56:10.617Z,0.41
2024-01-15T01:58:37.528Z,0.22
2024-01-15T02:01:04.575Z,0.28
2024-01-15T02:03:32.121Z,0.40
2024-01-15T02:06:00.712Z,0.30
2024-01-15T02:08:27.802Z,0.40
2024-01-15T02:10:54.344Z,0.26
2024-01-15T02:13:21.742Z,0.33
2024-01-15T02:15:48.249Z,0.35
2024-01-15T02:18:14.881Z,0.39
2024-01-15T02:20:41.587Z,0.41
2024-01-15T02:23:11.552Z,0.43
2024-01-15T02:25:45.724Z,0.05
2024-01-15T02:28:17.390Z,0.30
2024-01-15T02:30:45.093Z,0.15
2024-01-15T02:33:12.868Z,0.42
2024-01-15T02:35:39.846Z,0.31
2024-01-15T02:38:07.230Z,0.49
2024-01-15T02:40:33.830Z,0.36
2024-01-15T02:43:00.588Z,0.29
2024-01-15T02:45:30.402Z,0.49
2024-01-15T02:47:56.951Z,0.52
2024-01-15T02:50:23.637Z,0.57
2024-01-15T02:52:50.245Z,0.64
2024-01-15T02:55:16.879Z,0.55
2024-01-15T02:57:43.665Z,0.51
2024-01-15T03:00:10.968Z,0.55
2024-01-15T03:02:38.518Z,0.62
2024-01-15T03:05:05.367Z,0.59
2024-01-15T03:07:31.896Z,0.37
2024-01-15T03:09:58.472Z,0.52
2024-01-15T03:12:25.248Z,0.49
2024-01-15T03:14:51.998Z,0.46
2024-01-15T03:17:18.461Z,0.37
2024-01-15T03:19:45.254Z,0.39
2024-01-15T03:22:11.845Z,0.49
2024-01-15T03:24:41.084Z,0.52
2024-01-15T03:27:10.590Z,0.42
2024-01-15T03:29:40.985Z,0.53
2024-01-15T03:32:07.542Z,0.51
2024-01-15T03:34:34.191Z,0.61
2024-01-15T03:37:00.807Z,0.55
2024-01-15T03:39:27.440Z,0.57
2024-01-15T03:41:54.118Z,0.77
2024-01-15T03:44:20.617Z,0.82
2024-01-15T03:46:47.160Z,0.65
2024-01-15T03:49:13.634Z,0.68
2024-01-15T03:51:40.265Z,0.68
2024-01-15T03:54:06.948Z,0.58
2024-01-15T03:56:33.387Z,0.71
2024-01-15T03:58:59.893Z,0.80
2024-01-15T04:01:29.234Z,0.74
2024-01-15T04:03:55.880Z,0.62
2024-01-15T04:06:22.499Z,0.75
2024-01-15T04:08:49.060Z,0.73
2024-01-15T04:11:15.521Z,0.54
2024-01-15T04:13:42.892Z,0.56
2024-01-15T04:16:09.407Z,0.58
2024-01-15T04:18:35.918Z,0.51
2024-01-15T04:21:05.960Z,0.30
2024-01-15T04:23:33.725Z,0.30
2024-01-15T04:26:00.360Z,0.39
2024-01-15T04:28:26.862Z,0.31
2024-01-15T04:30:53.368Z,0.33
2024-01-15T04:33:20.057Z,0.25
2024-01-15T04:35:46.588Z,0.11
2024-01-15T04:38:13.114Z,0.24
2024-01-15T04:40:39.500Z,0.28
2024-01-15T04:43:05.960Z,0.11
2024-01-15T04:45:32.369Z,0.05
2024-01-15T04:47:58.996Z,0.12
2024-01-15T04:50:25.563Z,-0.03
2024-01-15T04:52:52.092Z,0.01
2024-01-15T04:55:18.582Z,-0.08
2024-01-15T04:57:45.329Z,-0.03
2024-01-15T05:00:12.815Z,-0.09
2024-01-15T05:02:39.300Z,-0.14
2024-01-15T05:05:05.894Z,-0.07
2024-01-15T05:07:32.286Z,-0.05
2024-01-15T05:09:58.884Z,-0.07
2024-01-15T05:12:25.411Z,0.09
2024-01-15T05:14:52.065Z,-0.01
2024-01-15T05:17:18.585Z,0.14
2024-01-15T05:19:45.210Z,0.19
2024-01-15T05:22:11.771Z,0.16
2024-01-15T05:24:38.572Z,0.03
2024-01-15T05:27:05.315Z,-0.19
2024-01-15T05:29:31.931Z,-0.10
2024-01-15T05:32:01.921Z,-0.05
2024-01-15T05:34:29.186Z,-0.18
2024-01-15T05:37:04.072Z,-0.11
2024-01-15T05:39:30.673Z,-0.24
2024-01-15T05:41:59.462Z,-0.31
2024-01-15T05:44:26.031Z,-0.33
2024-01-15T05:46:52.695Z,-0.22
2024-01-15T05:49:19.530Z,-0.36
2024-01-15T05:51:48.575Z,-0.31
2024-01-15T05:54:15.222Z,-0.38
2024-01-15T05:56:41.623Z,-0.49
2024-01-15T05:59:08.100Z,-0.43
2024-01-15T06:01:34.631Z,-0.34
2024-01-15T06:04:01.499Z,-0.24
2024-01-15T06:06:28.038Z,-0.33
2024-01-15T06:08:54.534Z,-0.35
2024-01-15T06:11:21.229Z,-0.42
2024-01-15T06:13:47.767Z,-0.37
2024-01-15T06:16:16.949Z,-0.44
2024-01-15T06:18:43.603Z,-0.34
2024-01-15T06:21:10.125Z,-0.23
2024-01-15T06:23:36.826Z,-0.20
2024-01-15T06:26:03.267Z,-0.25
2024-01-15T06:28:33.015Z,-0.33
2024-01-15T06:30:59.896Z,-0.37
2024-01-15T06:33:26.513Z,-0.14
2024-01-15T06:35:53.210Z,-0.16
2024-01-15T06:38:19.628Z,-0.16
2024-01-15T06:40:46.215Z,-0.21
2024-01-15T06:43:14.139Z,-0.38
2024-01-15T06:45:43.830Z,-0.37
2024-01-15T06:48:10.482Z,-0.42
2024-01-15T06:50:36.963Z,-0.36
2024-01-15T06:53:03.513Z,-0.27
2024-01-15T06:55:29.992Z,-0.28
2024-01-15T06:57:56.427Z,-0.50
2024-01-15T07:00:26.726Z,-0.44
2024-01-15T07:02:56.023Z,-0.66
2024-01-15T07:05:22.696Z,-0.67
2024-01-15T07:07:49.248Z,-0.57
2024-01-15T07:10:15.953Z,-0.60
2024-01-15T07:12:45.938Z,-0.37
2024-01-15T07:15:15.867Z,-0.45
2024-01-15T07:17:45.491Z,-0.45
2024-01-15T07:20:12.588Z,-0.44
2024-01-15T07:22:39.662Z,-0.62
2024-01-15T07:25:08.567Z,-0.36
2024-01-15T07:27:35.223Z,-0.43
2024-01-15T07:30:06.433Z,-0.45
2024-01-15T07:32:35.515Z,-0.30
2024-01-15T07:35:02.073Z,-0.47
2024-01-15T07:37:34.723Z,-0.34
2024-01-15T07:40:01.428Z,-0.17
2024-01-15T07:42:28.110Z,-0.09
2024-01-15T07:44:57.599Z,-0.16
2024-01-15T07:47:24.545Z,-0.12
2024-01-15T07:49:51.313Z,-0.03
2024-01-15T07:52:27.218Z,-0.16
2024-01-15T07:54:53.824Z,-0.27
2024-01-15T07:57:25.554Z,-0.07
2024-01-15T07:59:52.122Z,-0.04
2024-01-15T08:02:19.581Z,-0.07
2024-01-15T08:04:46.478Z,-0.26
2024-01-15T08:07:14.195Z,-0.28
2024-01-15T08:09:40.893Z,-0.19
2024-01-15T08:12:07.741Z,-0.21
2024-01-15T08:14:34.343Z,-0.18
2024-01-15T08:17:03.329Z,-0.31
2024-01-15T08:19:33.320Z,-0.23
2024-01-15T08:22:00.024Z,-0.39
2024-01-15T08:24:26.612Z,-0.25
2024-01-15T08:26:53.063Z,-0.26
2024-01-15T08:29:19.610Z,-0.18
2024-01-15T08:31:51.868Z,-0.04
2024-01-15T08:34:18.676Z,-0.21
2024-01-15T08:36:48.101Z,-0.09
2024-01-15T08:39:14.850Z,-0.13
2024-01-15T08:41:41.493Z,-0.16
2024-01-15T08:44:08.008Z,-0.12
2024-01-15T08:46:34.450Z,0.06
2024-01-15T08:49:04.947Z,-0.09
2024-01-15T08:51:41.197Z,0.03
2024-01-15T08:54:07.820Z,0.05
2024-01-15T08:56:40.386Z,0.14
2024-01-15T08:59:08.100Z,0.06
2024-01-15T09:01:34.781Z,0.21
2024-01-15T09:04:01.324Z,0.12
2024-01-15T09:06:30.312Z,0.08
2024-01-15T09:08:56.834Z,0.29
2024-01-15T09:11:23.526Z,0.28
2024-01-15T09:13:51.382Z,0.31
2024-01-15T09:16:18.238Z,0.58
2024-01-15T09:18:44.913Z,0.75
2024-01-15T09:21:11.660Z,0.78
2024-01-15T09:23:39.188Z,0.56
2024-01-15T09:26:05.772Z,0.43
2024-01-15T09:28:32.339Z,0.66
2024-01-15T09:30:59.044Z,0.69
2024-01-15T09:33:25.776Z,0.68
2024-01-15T09:35:52.350Z,0.84
2024-01-15T09:38:18.778Z,0.96
2024-01-15T09:40:47.009Z,0.86
2024-01-15T09:43:14.067Z,0.83
2024-01-15T09:45:41.070Z,1.11
2024-01-15T09:48:09.343Z,1.02
2024-01-15T09:50:35.883Z,1.00
2024-01-15T09:53:02.857Z,0.68
2024-01-15T09:55:33.176Z,0.52
2024-01-15T09:58:01.525Z,0.40
2024-01-15T10:00:29.240Z,0.29
2024-01-15T10:02:55.940Z,0.20
2024-01-15T10:05:22.703Z,0.12
2024-01-15T10:07:50.459Z,0.28
2024-01-15T10:10:17.164Z,0.07
2024-01-15T10:12:43.928Z,0.16
2024-01-15T10:15:11.450Z,0.46
2024-01-15T10:17:39.320Z,0.68
2024-01-15T10:20:13.078Z,0.77
2024-01-15T10:22:43.497Z,0.59
2024-01-15T10:25:14.281Z,0.71
2024-01-15T10:27:42.263Z,0.90
2024-01-15T10:30:10.633Z,0.88
2024-01-15T10:32:37.626Z,1.12
2024-01-15T10:35:05.020Z,0.77
2024-01-15T10:37:34.499Z,0.61
2024-01-15T10:40:03.403Z,0.78
2024-01-15T10:42:30.187Z,0.40
2024-01-15T10:44:59.442Z,0.59
2024-01-15T10:47:32.076Z,0.61
2024-01-15T10:49:59.118Z,0.65
2024-01-15T10:52:25.948Z,0.89
2024-01-15T10:54:55.907Z,0.82
2024-01-15T10:57:26.937Z,1.09
2024-01-15T10:59:55.564Z,0.87
2024-01-15T11:02:23.919Z,0.67
2024-01-15T11:04:51.194Z,0.80
2024-01-15T11:07:18.610Z,0.80
2024-01-15T11:09:46.556Z,0.81
2024-01-15T11:12:14.842Z,0.88
2024-01-15T11:14:43.401Z,0.97
2024-01-15T11:17:10.344Z,0.93
2024-01-15T11:19:48.495Z,0.86
2024-01-15T11:22:33.123Z,0.96
2024-01-15T11:25:16.118Z,0.81
2024-01-15T11:27:44.724Z,0.65
2024-01-15T11:30:13.204Z,0.71
2024-01-15T11:32:40.354Z,0.49
2024-01-15T11:35:07.296Z,0.57
2024-01-15T11:37:51.974Z,0.85
2024-01-15T11:40:41.219Z,1.05
2024-01-15T11:43:07.856Z,1.18
2024-01-15T11:45:34.564Z,1.13
2024-01-15T11:48:16.090Z,0.90
2024-01-15T11:50:44.521Z,1.02
2024-01-15T11:53:43.566Z,1.10
2024-01-15T11:56:16.636Z,1.06
2024-01-15T11:58:46.596Z,0.93
2024-01-15T12:01:13.574Z,0.86
2024-01-15T12:03:40.804Z,0.93
2024-01-15T12:06:08.272Z,0.81
2024-01-15T12:08:34.853Z,0.64
2024-01-15T12:11:03.583Z,0.84
2024-01-15T12:13:31.413Z,1.04
2024-01-15T12:15:58.048Z,0.87
2024-01-15T12:18:24.785Z,1.06
2024-01-15T12:20:51.438Z,1.11
2024-01-15T12:23:18.638Z,1.12
2024-01-15T12:25:45.903Z,1.11
2024-01-15T12:28:12.582Z,0.87
2024-01-15T12:30:40.216Z,0.90
2024-01-15T12:33:08.846Z,0.94
2024-01-15T12:35:37.549Z,1.10
2024-01-15T12:38:04.590Z,0.91
2024-01-15T12:40:32.900Z,1.00
2024-01-15T12:43:04.412Z,1.36
2024-01-15T12:45:33.640Z,1.46
2024-01-15T12:48:00.533Z,1.57
2024-01-15T12:50:27.753Z,1.72
2024-01-15T12:52:56.875Z,1.78
2024-01-15T12:55:23.515Z,1.64
2024-01-15T12:57:50.942Z,2.44
2024-01-15T13:00:17.730Z,2.55
2024-01-15T13:02:44.958Z,2.25
2024-01-15T13:05:15.654Z,1.74
2024-01-15T13:07:43.266Z,1.58
2024-01-15T13:10:10.176Z,1.73
2024-01-15T13:12:37.717Z,2.92
2024-01-15T13:15:04.357Z,4.12
2024-01-15T13:17:31.264Z,4.93
2024-01-15T13:19:58.468Z,5.49
2024-01-15T13:22:25.950Z,5.24
2024-01-15T13:24:52.589Z,4.96
2024-01-15T13:27:19.335Z,4.77
2024-01-15T13:29:45.837Z,4.60
2024-01-15T13:32:18.682Z,3.71
2024-01-15T13:34:45.347Z,2.75
2024-01-15T13:37:12.116Z,2.52
2024-01-15T13:39:38.604Z,2.95
2024-01-15T13:42:05.387Z,3.91
2024-01-15T13:44:32.037Z,3.48
2024-01-15T13:46:58.519Z,3.15
2024-01-15T13:49:25.063Z,2.77
2024-01-15T13:51:51.807Z,2.26
2024-01-15T13:54:18.461Z,2.10
2024-01-15T13:56:47.944Z,1.96
2024-01-15T13:59:14.417Z,1.80
2024-01-15T14:01:40.933Z,1.78
2024-01-15T14:04:07.535Z,1.74
2024-01-15T14:06:36.239Z,1.59
2024-01-15T14:09:02.784Z,1.30
2024-01-15T14:11:32.829Z,1.23
2024-01-15T14:13:59.275Z,1.39
2024-01-15T14:16:26.359Z,1.24
2024-01-15T14:18:55.177Z,2.41
2024-01-15T14:21:21.787Z,3.01
2024-01-15T14:23:48.309Z,3.16
2024-01-15T14:26:15.459Z,2.42
2024-01-15T14:28:43.085Z,2.00
2024-01-15T14:31:09.582Z,2.65
2024-01-15T14:33:40.443Z,2.78
2024-01-15T14:36:07.596Z,2.37
2024-01-15T14:38:34.049Z,1.65
2024-01-15T14:41:00.580Z,1.39
2024-01-15T14:43:27.108Z,1.33
2024-01-15T14:45:53.592Z,1.61
2024-01-15T14:48:20.314Z,1.54
2024-01-15T14:50:46.890Z,1.45
2024-01-15T14:53:13.450Z,1.20
2024-01-15T14:55:39.967Z,1.23
2024-01-15T14:58:06.425Z,1.13
2024-01-15T15:00:33.076Z,1.05
2024-01-15T15:02:59.683Z,0.95
2024-01-15T15:05:29.116Z,0.95
2024-01-15T15:07:55.621Z,0.93
2024-01-15T15:10:22.153Z,0.83
2024-01-15T15:12:48.656Z,0.64
2024-01-15T15:15:19.321Z,0.67
2024-01-15T15:17:48.054Z,0.58
2024-01-15T15:20:14.898Z,0.69
2024-01-15T15:22:41.744Z,0.64
2024-01-15T15:25:08.513Z,0.41
2024-01-15T15:27:36.233Z,0.40
2024-01-15T15:30:02.690Z,0.32
2024-01-15T15:32:32.396Z,0.27
2024-01-15T15:34:59.020Z,0.44
2024-01-15T15:37:25.599Z,0.53
2024-01-15T15:39:52.162Z,0.52
2024-01-15T15:42:18.714Z,0.47
2024-01-15T15:44:45.223Z,0.54
2024-01-15T15:47:11.738Z,0.51
2024-01-15T15:49:38.437Z,0.21
2024-01-15T15:52:07.748Z,0.12
2024-01-15T15:54:37.016Z,0.16
2024-01-15T15:57:03.753Z,0.30
2024-01-15T16:00:06.139Z,0.39
2024-01-15T16:02:35.539Z,0.10
2024-01-15T16:05:02.263Z,0.01
2024-01-15T16:07:34.512Z,0.01
2024-01-15T16:10:04.708Z,-0.05
2024-01-15T16:12:31.583Z,-0.10
2024-01-15T16:15:00.649Z,-0.07
2024-01-15T16:23:16.004Z,0.14
2024-01-15T16:23:30.059Z,0.04
2024-01-15T16:24:00.205Z,0.21
2024-01-15T16:25:56.735Z,0.24
2024-01-15T16:28:23.946Z,0.15
2024-01-15T16:30:52.699Z,0.12
2024-01-15T16:33:24.859Z,0.04
2024-01-15T16:35:51.441Z,0.09
2024-01-15T16:38:18.156Z,0.07
2024-01-15T16:40:44.603Z,0.10
2024-01-15T16:43:11.088Z,0.14
2024-01-15T16:45:37.540Z,0.12
2024-01-15T16:48:04.471Z,0.29
2024-01-15T16:50:31.050Z,0.28
2024-01-15T16:52:57.612Z,0.13
2024-01-15T16:55:24.600Z,0.18
2024-01-15T16:57:51.063Z,0.24
2024-01-15T17:00:17.614Z,0.03
2024-01-15T17:02:47.202Z,0.24
2024-01-15T17:05:13.922Z,0.18
2024-01-15T17:07:42.802Z,-0.05
2024-01-15T17:10:09.497Z,0.01
2024-01-15T17:12:36.115Z,-0.05
2024-01-15T17:15:02.652Z,0.20
2024-01-15T17:17:29.278Z,-0.15
2024-01-15T17:19:55.762Z,0.04
2024-01-15T17:22:22.422Z,0.09
2024-01-15T17:24:48.992Z,0.17
2024-01-15T17:27:15.471Z,0.20
2024-01-15T17:29:42.023Z,0.07
2024-01-15T17:32:08.469Z,-0.07
2024-01-15T17:34:35.121Z,-0.09
2024-01-15T17:37:01.534Z,0.26
2024-01-15T17:39:28.102Z,0.20
2024-01-15T17:41:54.540Z,0.26
2024-01-15T17:44:23.085Z,0.14
2024-01-15T17:46:50.174Z,0.28
2024-01-15T17:49:19.639Z,0.24
2024-01-15T17:51:47.536Z,0.25
2024-01-15T17:54:17.138Z,0.36
2024-01-15T17:56:43.712Z,0.21
2024-01-15T17:59:10.356Z,0.26
2024-01-15T18:04:17.406Z,0.16
2024-01-15T18:06:43.927Z,0.20
2024-01-15T18:09:10.367Z,0.23
2024-01-15T18:11:37.894Z,0.39
2024-01-15T18:14:04.733Z,0.46
2024-01-15T18:16:31.156Z,0.43
2024-01-15T18:18:57.720Z,0.19
2024-01-15T18:21:24.456Z,0.37
2024-01-15T18:23:50.927Z,0.27
2024-01-15T18:26:17.983Z,0.38
2024-01-15T18:28:44.666Z,0.24
2024-01-15T18:31:12.865Z,0.20
2024-01-15T18:33:41.862Z,0.18
2024-01-15T18:36:11.256Z,0.08
2024-01-15T18:38:37.907Z,0.05
2024-01-15T18:41:04.843Z,0.05
2024-01-15T18:43:32.416Z,0.11
2024-01-15T18:45:59.352Z,0.17
2024-01-15T18:48:25.867Z,0.02
2024-01-15T18:50:52.490Z,0.14
2024-01-15T18:53:19.087Z,0.15
2024-01-15T18:55:45.821Z,0.18
2024-01-15T18:58:15.525Z,0.07
2024-01-15T19:00:42.027Z,0.02
2024-01-15T19:03:08.696Z,0.08
2024-01-15T19:05:35.141Z,0.34
2024-01-15T19:08:02.700Z,0.25
2024-01-15T19:10:29.256Z,0.26
2024-01-15T19:12:55.770Z,0.28
2024-01-15T19:15:22.274Z,0.15
2024-01-15T19:17:48.779Z,0.19
2024-01-15T19:20:15.603Z,0.06
2024-01-15T19:22:42.369Z,-0.04
2024-01-15T19:25:10.406Z,0.08
2024-01-15T19:27:39.565Z,-0.17
2024-01-15T19:30:06.511Z,0.09
2024-01-15T19:32:33.268Z,0.16
2024-01-15T19:35:01.066Z,0.07
2024-01-15T19:37:28.380Z,0.05
2024-01-15T19:39:55.058Z,0.12
2024-01-15T19:42:21.568Z,0.03
2024-01-15T19:44:48.014Z,0.19
2024-01-15T19:47:17.355Z,-0.02
2024-01-15T19:49:43.756Z,-0.18
2024-01-15T19:52:10.171Z,-0.03
2024-01-15T19:54:39.496Z,-0.26
2024-01-15T19:57:06.258Z,-0.14
2024-01-15T19:59:32.804Z,-0.33
2024-01-15T20:01:59.496Z,-0.23
2024-01-15T20:04:26.058Z,-0.30
2024-01-15T20:06:55.506Z,-0.42
2024-01-15T20:09:21.907Z,-0.37
2024-01-15T20:11:48.470Z,-0.49
2024-01-15T20:14:15.101Z,-0.47
2024-01-15T20:16:41.662Z,-0.31
2024-01-15T20:19:08.383Z,-0.45
2024-01-15T20:21:34.887Z,-0.55
2024-01-15T20:24:04.192Z,-0.35
2024-01-15T20:26:31.149Z,-0.47
2024-01-15T20:28:58.887Z,-0.49
2024-01-15T20:31:27.628Z,-0.37
2024-01-15T20:33:54.211Z,-0.38
2024-01-15T20:36:20.886Z,-0.36
2024-01-15T20:39:10.682Z,-0.62
2024-01-15T20:41:37.305Z,-0.44
2024-01-15T20:44:04.003Z,-0.40
2024-01-15T20:46:30.617Z,-0.53
2024-01-15T20:48:57.160Z,-0.33
2024-01-15T20:51:23.619Z,-0.56
2024-01-15T20:53:50.238Z,-0.48
2024-01-15T20:56:16.864Z,-0.50
2024-01-15T20:58:43.535Z,-0.46
2024-01-15T21:01:11.096Z,-0.41
2024-01-15T21:03:37.717Z,-0.28
2024-01-15T21:06:06.959Z,-0.25
2024-01-15T21:08:33.584Z,-0.40
2024-01-15T21:11:01.933Z,-0.49
2024-01-15T21:13:34.905Z,-0.51
2024-01-15T21:16:01.457Z,-0.50
2024-01-15T21:18:29.177Z,-0.42
2024-01-15T21:20:55.878Z,-0.38
2024-01-15T21:23:28.399Z,-0.50
2024-01-15T21:25:58.702Z,-0.65
2024-01-15T21:28:25.270Z,-0.67
2024-01-15T21:30:51.962Z,-0.60
2024-01-15T21:33:18.550Z,-0.80
2024-01-15T21:35:45.253Z,-0.91
2024-01-15T21:38:11.700Z,-0.75
2024-01-15T21:40:40.727Z,-0.91
2024-01-15T21:45:39.012Z,-0.94
2024-01-15T21:46:16.518Z,-0.94
2024-01-15T21:48:47.950Z,-0.99
2024-01-15T21:51:16.581Z,-0.96
2024-01-15T21:53:55.031Z,-1.04
2024-01-15T21:56:25.558Z,-1.06
2024-01-15T21:59:13.198Z,-1.07
2024-01-15T22:01:46.648Z,-1.07
2024-01-15T22:04:15.856Z,-1.10
2024-01-15T22:06:44.965Z,-0.94
2024-01-15T22:09:23.542Z,-0.98
2024-01-15T22:11:51.505Z,-0.88
2024-01-15T22:14:26.682Z,-0.96
2024-01-15T22:17:12.992Z,-0.58
2024-01-15T22:19:44.931Z,-0.68
2024-01-15T22:22:11.563Z,-0.57
2024-01-15T22:24:43.649Z,-0.54
2024-01-15T22:27:10.694Z,-0.65
2024-01-15T22:29:55.145Z,-0.66
2024-01-15T22:32:21.790Z,-0.63
2024-01-15T22:34:48.473Z,-0.73
2024-01-15T22:37:15.059Z,-0.74
2024-01-15T22:39:41.743Z,-0.58
2024-01-15T22:42:08.201Z,-0.72
2024-01-15T22:44:35.082Z,-0.81
2024-01-15T22:47:01.638Z,-0.79
2024-01-15T22:49:28.189Z,-0.78
2024-01-15T22:51:54.612Z,-0.75
2024-01-15T22:54:21.054Z,-0.77
2024-01-15T22:56:47.543Z,-0.78
2024-01-15T22:59:16.715Z,-0.87
2024-01-15T23:01:43.093Z,-0.84
2024-01-15T23:04:09.474Z,-0.81
2024-01-15T23:06:36.117Z,-0.80
2024-01-15T23:09:02.509Z,-0.85
2024-01-15T23:11:29.083Z,-0.79
2024-01-15T23:13:55.804Z,-0.76
2024-01-15T23:16:22.256Z,-0.71
2024-01-15T23:18:51.405Z,-0.57
2024-01-15T23:21:18.443Z,-0.61
2024-01-15T23:23:44.953Z,-0.72
2024-01-15T23:26:13.702Z,-0.67
2024-01-15T23:28:40.852Z,-0.73
2024-01-15T23:31:07.333Z,-0.69
2024-01-15T23:33:33.972Z,-0.73
2024-01-15T23:36:00.550Z,-0.93
2024-01-15T23:38:27.174Z,-0.83
2024-01-15T23:40:54.322Z,-0.72
2024-01-15T23:43:20.816Z,-0.81
2024-01-15T23:45:51.185Z,-0.81
2024-01-15T23:48:24.965Z,-0.87
2024-01-15T23:50:51.558Z,-0.82
2024-01-15T23:53:18.160Z,-0.88
2024-01-15T23:55:44.574Z,-1.05
2024-01-15T23:58:13.906Z,-1.02
